ENGM/OSL METAR and TAF weather

Enter ICAO airport designator
Station Type Date Time Source
ENGM METAR 2018/01/21 12:20 UTC NOAA

ENGM 211220Z 00000KT CAVOK M04/M07 Q1014 NOSIG


Station Type Date Time Source
ENGM Decoded METAR 2018/01/21 12:20 UTC NOAA

Oslo / Gardermoen, Norway (ENGM) 60-12N 011-05E 204M
Jan 21, 2018 - 07:20 AM EST / 2018.01.21 1220 UTC
Wind: Calm:0
Visibility: greater than 7 mile(s):0
Temperature: 24 F (-4 C)
Dew Point: 19 F (-7 C)
Relative Humidity: 79%
Pressure (altimeter): 29.94 in. Hg (1014 hPa)
ob: ENGM 211220Z 00000KT CAVOK M04/M07 Q1014 NOSIG
cycle: 12

Station Type Date Time Source
ENGM TAF 2018/01/21 12:59 UTC NOAA

TAF ENGM 211100Z 2112/2212 VRB05KT 9999 SCT010 BKN020
BECMG 2114/2116 3000 BR BKN003 PROB40 2115/2124 0500 FZFG VV001
TEMPO 2124/2206 9999 BKN010
TEMPO 2206/2212 2000 -SN BR OVC005


Example: see airport list